Ocean Phoenix — KCAK — position and weather

sailwx.info

Track history (hours):
 
Tides and Currents Weather Stations Pressure Air Temp Water Temp Dewpoint Dewpoint Depression Visibility Wind Speed Wind Dir Waves Ship Positions

Ocean Phoenix

Owner: PHOENIX PROCESSOR LTD. PARTNERSHIP, SEATTLE, WA. More information available from US FCC via Universal Licensing System and Coast Guard Vessel Documentation Center.

Last reported at 2014-Oct-31 23:12 UTC. Time now 2014-Nov-22 02:36 UTC.
Position N 47°38' W 122°23'.
Warning: this ship's position is 21 days out of date.

Length 206 m; draft 6.1 m.

Type: Fishing. MMSI: 366588000.

Date/timePositionNaut miles runAvg speedWind from/ knotsBaromVisibWave heightAir tempDewpointWater temp
2014-Oct-31 23:12N 47°38' W 122°23'0 0.2
2014-Oct-31 22:33N 47°38' W 122°23'5 5.2
2014-Oct-31 21:33N 47°42' W 122°28'1515.2
2014-Oct-31 20:33N 47°57' W 122°33'1515.3
2014-Oct-31 19:33N 48°09' W 122°45'1717.0
2014-Oct-31 18:33N 48°11' W 123°10'1211.5
2014-Oct-31 17:33N 48°11' W 123°28'9 9.1
2014-Oct-31 16:33N 48°13' W 123°41'10 9.7
2014-Oct-31 15:33N 48°13' W 123°56'1010.4
2014-Oct-31 14:33N 48°18' W 124°10'11 9.8
2014-Oct-31 13:27N 48°23' W 124°24'95 3.2
2014-Oct-30 07:33N 46°57' W 125°24'6 5.9
2014-Oct-30 06:32N 46°50' W 125°24'42 6.8
2014-Oct-30 00:28N 46°09' W 125°23'7 7.2
2014-Oct-29 23:33N 46°02' W 125°23'8 7.7
2014-Oct-29 22:33N 45°55' W 125°23'8 7.9
2014-Oct-29 21:33N 45°47' W 125°24'8 7.9
2014-Oct-29 20:29N 45°39' W 125°25'  
Track history (hours):
 
Tides and Currents Weather Stations Pressure Air Temp Water Temp Dewpoint Dewpoint Depression Visibility Wind Speed Wind Dir Waves Ship Positions

Ocean Phoenix

Owner: PHOENIX PROCESSOR LTD. PARTNERSHIP, SEATTLE, WA. More information available from US FCC via Universal Licensing System and Coast Guard Vessel Documentation Center.

Last reported at 2014-Oct-31 23:12 UTC. Time now 2014-Nov-22 02:36 UTC.
Position N 47°38' W 122°23'.
Warning: this ship's position is 21 days out of date.

Length 206 m; draft 6.1 m.

Type: Fishing. MMSI: 366588000.

Date/timePositionNaut miles runAvg speedWind from/ knotsBaromVisibWave heightAir tempDewpointWater temp
2014-Oct-31 23:12N 47°38' W 122°23'0 0.2
2014-Oct-31 22:33N 47°38' W 122°23'5 5.2
2014-Oct-31 21:33N 47°42' W 122°28'1515.2
2014-Oct-31 20:33N 47°57' W 122°33'1515.3
2014-Oct-31 19:33N 48°09' W 122°45'1717.0
2014-Oct-31 18:33N 48°11' W 123°10'1211.5
2014-Oct-31 17:33N 48°11' W 123°28'9 9.1
2014-Oct-31 16:33N 48°13' W 123°41'10 9.7
2014-Oct-31 15:33N 48°13' W 123°56'1010.4
2014-Oct-31 14:33N 48°18' W 124°10'11 9.8
2014-Oct-31 13:27N 48°23' W 124°24'95 3.2
2014-Oct-30 07:33N 46°57' W 125°24'6 5.9
2014-Oct-30 06:32N 46°50' W 125°24'42 6.8
2014-Oct-30 00:28N 46°09' W 125°23'7 7.2
2014-Oct-29 23:33N 46°02' W 125°23'8 7.7
2014-Oct-29 22:33N 45°55' W 125°23'8 7.9
2014-Oct-29 21:33N 45°47' W 125°24'8 7.9
2014-Oct-29 20:29N 45°39' W 125°25'  

Dump ship's entire track history